<?xml version="1.0" encoding="UTF-8" standalone="no" ?>
<gpx xmlns="http://www.topografix.com/GPX/1/1" xmlns:xsi="http://www.w3.org/2001/XMLSchema-instance" xsi:schemaLocation="http://www.topografix.com/GPX/1/1 http://www.topografix.com/GPX/1/1/gpx.xsd" version="1.1" creator="VisuGPX - https://www.visugpx.com">
  <metadata>
    <name>Randonnée raquettes col de Bramont.</name>
    <desc><![CDATA[départ col de Bramont,vieille montagne,col de Pourri faing.]]></desc>
  </metadata>
  <trk>
    <name><![CDATA[2016-02-16 15:52:45]]></name>
    <trkseg>
      <trkpt lat="48.00133" lon="6.94553">
        <ele>967.67</ele>
        <time>2016-02-16T08:45:01Z</time>
      </trkpt>
      <trkpt lat="48.00112" lon="6.94552">
        <ele>970.17</ele>
        <time>2016-02-16T08:46:44Z</time>
      </trkpt>
      <trkpt lat="48.00091" lon="6.9455">
        <ele>970.95</ele>
        <time>2016-02-16T08:47:02Z</time>
      </trkpt>
      <trkpt lat="48.00073" lon="6.94538">
        <ele>972.85</ele>
        <time>2016-02-16T08:47:21Z</time>
      </trkpt>
      <trkpt lat="48.00064" lon="6.9452">
        <ele>971.31</ele>
        <time>2016-02-16T08:48:17Z</time>
      </trkpt>
      <trkpt lat="48.00073" lon="6.94485">
        <ele>967.95</ele>
        <time>2016-02-16T08:48:53Z</time>
      </trkpt>
      <trkpt lat="48.00084" lon="6.94458">
        <ele>965.06</ele>
        <time>2016-02-16T08:49:16Z</time>
      </trkpt>
      <trkpt lat="48.00096" lon="6.9443">
        <ele>962.63</ele>
        <time>2016-02-16T08:49:41Z</time>
      </trkpt>
      <trkpt lat="48.0011" lon="6.94404">
        <ele>959.62</ele>
        <time>2016-02-16T08:50:06Z</time>
      </trkpt>
      <trkpt lat="48.00125" lon="6.94382">
        <ele>957</ele>
        <time>2016-02-16T08:50:32Z</time>
      </trkpt>
      <trkpt lat="48.00137" lon="6.94359">
        <ele>953.06</ele>
        <time>2016-02-16T08:50:54Z</time>
      </trkpt>
      <trkpt lat="48.00142" lon="6.94329">
        <ele>950.49</ele>
        <time>2016-02-16T08:51:19Z</time>
      </trkpt>
      <trkpt lat="48.00141" lon="6.94299">
        <ele>948.92</ele>
        <time>2016-02-16T08:51:41Z</time>
      </trkpt>
      <trkpt lat="48.00142" lon="6.94269">
        <ele>946.36</ele>
        <time>2016-02-16T08:52:04Z</time>
      </trkpt>
      <trkpt lat="48.00143" lon="6.94239">
        <ele>943.34</ele>
        <time>2016-02-16T08:52:29Z</time>
      </trkpt>
      <trkpt lat="48.00134" lon="6.94215">
        <ele>939.67</ele>
        <time>2016-02-16T08:52:55Z</time>
      </trkpt>
      <trkpt lat="48.00121" lon="6.94194">
        <ele>937.12</ele>
        <time>2016-02-16T08:53:20Z</time>
      </trkpt>
      <trkpt lat="48.0012" lon="6.94168">
        <ele>935.35</ele>
        <time>2016-02-16T08:54:06Z</time>
      </trkpt>
      <trkpt lat="48.00119" lon="6.9414">
        <ele>932.12</ele>
        <time>2016-02-16T08:54:44Z</time>
      </trkpt>
      <trkpt lat="48.00116" lon="6.94112">
        <ele>929.62</ele>
        <time>2016-02-16T08:55:12Z</time>
      </trkpt>
      <trkpt lat="48.00112" lon="6.94085">
        <ele>925.72</ele>
        <time>2016-02-16T08:56:00Z</time>
      </trkpt>
      <trkpt lat="48.00109" lon="6.9406">
        <ele>925.09</ele>
        <time>2016-02-16T08:57:12Z</time>
      </trkpt>
      <trkpt lat="48.00108" lon="6.94031">
        <ele>923.2</ele>
        <time>2016-02-16T08:58:07Z</time>
      </trkpt>
      <trkpt lat="48.00097" lon="6.94005">
        <ele>922.44</ele>
        <time>2016-02-16T08:58:33Z</time>
      </trkpt>
      <trkpt lat="48.00088" lon="6.9398">
        <ele>921.69</ele>
        <time>2016-02-16T08:58:58Z</time>
      </trkpt>
      <trkpt lat="48.00074" lon="6.93959">
        <ele>922.7</ele>
        <time>2016-02-16T08:59:24Z</time>
      </trkpt>
      <trkpt lat="48.00058" lon="6.93938">
        <ele>922.32</ele>
        <time>2016-02-16T08:59:50Z</time>
      </trkpt>
      <trkpt lat="48.00042" lon="6.93918">
        <ele>923.31</ele>
        <time>2016-02-16T09:00:18Z</time>
      </trkpt>
      <trkpt lat="48.00025" lon="6.939">
        <ele>923.52</ele>
        <time>2016-02-16T09:00:47Z</time>
      </trkpt>
      <trkpt lat="48.00009" lon="6.93878">
        <ele>924.32</ele>
        <time>2016-02-16T09:01:15Z</time>
      </trkpt>
      <trkpt lat="47.99994" lon="6.93854">
        <ele>925.1</ele>
        <time>2016-02-16T09:01:43Z</time>
      </trkpt>
      <trkpt lat="47.99976" lon="6.93837">
        <ele>925.18</ele>
        <time>2016-02-16T09:02:10Z</time>
      </trkpt>
      <trkpt lat="47.99958" lon="6.93822">
        <ele>927.83</ele>
        <time>2016-02-16T09:02:44Z</time>
      </trkpt>
      <trkpt lat="47.99936" lon="6.93815">
        <ele>931.15</ele>
        <time>2016-02-16T09:03:21Z</time>
      </trkpt>
      <trkpt lat="47.99913" lon="6.93804">
        <ele>933.45</ele>
        <time>2016-02-16T09:03:56Z</time>
      </trkpt>
      <trkpt lat="47.99893" lon="6.93789">
        <ele>934.27</ele>
        <time>2016-02-16T09:04:32Z</time>
      </trkpt>
      <trkpt lat="47.99887" lon="6.93786">
        <ele>933.3</ele>
        <time>2016-02-16T09:06:17Z</time>
      </trkpt>
      <trkpt lat="47.99874" lon="6.93782">
        <ele>934.24</ele>
        <time>2016-02-16T09:07:20Z</time>
      </trkpt>
      <trkpt lat="47.99855" lon="6.93791">
        <ele>936.29</ele>
        <time>2016-02-16T09:08:00Z</time>
      </trkpt>
      <trkpt lat="47.99829" lon="6.938">
        <ele>937.72</ele>
        <time>2016-02-16T09:08:34Z</time>
      </trkpt>
      <trkpt lat="47.99804" lon="6.93794">
        <ele>939.58</ele>
        <time>2016-02-16T09:09:09Z</time>
      </trkpt>
      <trkpt lat="47.99783" lon="6.93783">
        <ele>942.29</ele>
        <time>2016-02-16T09:09:44Z</time>
      </trkpt>
      <trkpt lat="47.9976" lon="6.93791">
        <ele>944.07</ele>
        <time>2016-02-16T09:10:20Z</time>
      </trkpt>
      <trkpt lat="47.9974" lon="6.93786">
        <ele>943.68</ele>
        <time>2016-02-16T09:10:53Z</time>
      </trkpt>
      <trkpt lat="47.99719" lon="6.93767">
        <ele>946.71</ele>
        <time>2016-02-16T09:11:27Z</time>
      </trkpt>
      <trkpt lat="47.99701" lon="6.93743">
        <ele>947.91</ele>
        <time>2016-02-16T09:11:59Z</time>
      </trkpt>
      <trkpt lat="47.99685" lon="6.93725">
        <ele>947.82</ele>
        <time>2016-02-16T09:12:26Z</time>
      </trkpt>
      <trkpt lat="47.99666" lon="6.93709">
        <ele>949.92</ele>
        <time>2016-02-16T09:12:54Z</time>
      </trkpt>
      <trkpt lat="47.99644" lon="6.93693">
        <ele>951.58</ele>
        <time>2016-02-16T09:13:28Z</time>
      </trkpt>
      <trkpt lat="47.9962" lon="6.93683">
        <ele>952.49</ele>
        <time>2016-02-16T09:14:06Z</time>
      </trkpt>
      <trkpt lat="47.99599" lon="6.93678">
        <ele>954.6</ele>
        <time>2016-02-16T09:14:50Z</time>
      </trkpt>
      <trkpt lat="47.99572" lon="6.93676">
        <ele>956.93</ele>
        <time>2016-02-16T09:15:23Z</time>
      </trkpt>
      <trkpt lat="47.9955" lon="6.9367">
        <ele>958.99</ele>
        <time>2016-02-16T09:16:01Z</time>
      </trkpt>
      <trkpt lat="47.99529" lon="6.93662">
        <ele>960.79</ele>
        <time>2016-02-16T09:16:41Z</time>
      </trkpt>
      <trkpt lat="47.99506" lon="6.93652">
        <ele>962.19</ele>
        <time>2016-02-16T09:17:23Z</time>
      </trkpt>
      <trkpt lat="47.99483" lon="6.93639">
        <ele>965.32</ele>
        <time>2016-02-16T09:18:00Z</time>
      </trkpt>
      <trkpt lat="47.99459" lon="6.93629">
        <ele>967.1</ele>
        <time>2016-02-16T09:18:42Z</time>
      </trkpt>
      <trkpt lat="47.99439" lon="6.93622">
        <ele>969.43</ele>
        <time>2016-02-16T09:19:22Z</time>
      </trkpt>
      <trkpt lat="47.99416" lon="6.93606">
        <ele>970.49</ele>
        <time>2016-02-16T09:20:00Z</time>
      </trkpt>
      <trkpt lat="47.9939" lon="6.93588">
        <ele>971.45</ele>
        <time>2016-02-16T09:20:35Z</time>
      </trkpt>
      <trkpt lat="47.99372" lon="6.93569">
        <ele>974.6</ele>
        <time>2016-02-16T09:21:13Z</time>
      </trkpt>
      <trkpt lat="47.99355" lon="6.93549">
        <ele>973.85</ele>
        <time>2016-02-16T09:21:46Z</time>
      </trkpt>
      <trkpt lat="47.99348" lon="6.93525">
        <ele>973.46</ele>
        <time>2016-02-16T09:22:28Z</time>
      </trkpt>
      <trkpt lat="47.99348" lon="6.93497">
        <ele>975.96</ele>
        <time>2016-02-16T09:22:57Z</time>
      </trkpt>
      <trkpt lat="47.99339" lon="6.9347">
        <ele>975.86</ele>
        <time>2016-02-16T09:23:22Z</time>
      </trkpt>
      <trkpt lat="47.99325" lon="6.93448">
        <ele>976.39</ele>
        <time>2016-02-16T09:23:55Z</time>
      </trkpt>
      <trkpt lat="47.99311" lon="6.93416">
        <ele>977.02</ele>
        <time>2016-02-16T09:24:29Z</time>
      </trkpt>
      <trkpt lat="47.99307" lon="6.93389">
        <ele>976.73</ele>
        <time>2016-02-16T09:24:57Z</time>
      </trkpt>
      <trkpt lat="47.99302" lon="6.93362">
        <ele>975.53</ele>
        <time>2016-02-16T09:25:27Z</time>
      </trkpt>
      <trkpt lat="47.99302" lon="6.93332">
        <ele>974.73</ele>
        <time>2016-02-16T09:25:56Z</time>
      </trkpt>
      <trkpt lat="47.993" lon="6.93301">
        <ele>973.18</ele>
        <time>2016-02-16T09:26:26Z</time>
      </trkpt>
      <trkpt lat="47.99289" lon="6.93274">
        <ele>973.78</ele>
        <time>2016-02-16T09:26:55Z</time>
      </trkpt>
      <trkpt lat="47.99282" lon="6.93244">
        <ele>973.68</ele>
        <time>2016-02-16T09:27:29Z</time>
      </trkpt>
      <trkpt lat="47.99285" lon="6.93213">
        <ele>973.39</ele>
        <time>2016-02-16T09:28:00Z</time>
      </trkpt>
      <trkpt lat="47.99296" lon="6.93188">
        <ele>974.19</ele>
        <time>2016-02-16T09:28:42Z</time>
      </trkpt>
      <trkpt lat="47.99297" lon="6.93187">
        <ele>973.65</ele>
        <time>2016-02-16T09:30:07Z</time>
      </trkpt>
      <trkpt lat="47.99297" lon="6.93182">
        <ele>973.62</ele>
        <time>2016-02-16T09:31:20Z</time>
      </trkpt>
      <trkpt lat="47.99298" lon="6.93178">
        <ele>973.42</ele>
        <time>2016-02-16T09:33:03Z</time>
      </trkpt>
      <trkpt lat="47.99295" lon="6.93178">
        <ele>974.82</ele>
        <time>2016-02-16T09:34:38Z</time>
      </trkpt>
      <trkpt lat="47.99297" lon="6.93178">
        <ele>976.27</ele>
        <time>2016-02-16T09:36:22Z</time>
      </trkpt>
      <trkpt lat="47.99298" lon="6.93178">
        <ele>976.34</ele>
        <time>2016-02-16T09:38:59Z</time>
      </trkpt>
      <trkpt lat="47.993" lon="6.9315">
        <ele>976.14</ele>
        <time>2016-02-16T09:39:36Z</time>
      </trkpt>
      <trkpt lat="47.99303" lon="6.93119">
        <ele>975.77</ele>
        <time>2016-02-16T09:40:03Z</time>
      </trkpt>
      <trkpt lat="47.99303" lon="6.93085">
        <ele>976.02</ele>
        <time>2016-02-16T09:40:33Z</time>
      </trkpt>
      <trkpt lat="47.99305" lon="6.93047">
        <ele>976.34</ele>
        <time>2016-02-16T09:41:04Z</time>
      </trkpt>
      <trkpt lat="47.99301" lon="6.93016">
        <ele>976.63</ele>
        <time>2016-02-16T09:41:32Z</time>
      </trkpt>
      <trkpt lat="47.99312" lon="6.92986">
        <ele>976.06</ele>
        <time>2016-02-16T09:42:04Z</time>
      </trkpt>
      <trkpt lat="47.99325" lon="6.92957">
        <ele>977.38</ele>
        <time>2016-02-16T09:42:38Z</time>
      </trkpt>
      <trkpt lat="47.99345" lon="6.92941">
        <ele>977.85</ele>
        <time>2016-02-16T09:43:17Z</time>
      </trkpt>
      <trkpt lat="47.99369" lon="6.92923">
        <ele>979.8</ele>
        <time>2016-02-16T09:43:56Z</time>
      </trkpt>
      <trkpt lat="47.99398" lon="6.92906">
        <ele>981.56</ele>
        <time>2016-02-16T09:44:36Z</time>
      </trkpt>
      <trkpt lat="47.9941" lon="6.92874">
        <ele>982.96</ele>
        <time>2016-02-16T09:45:12Z</time>
      </trkpt>
      <trkpt lat="47.99407" lon="6.92832">
        <ele>984.69</ele>
        <time>2016-02-16T09:45:50Z</time>
      </trkpt>
      <trkpt lat="47.99395" lon="6.92801">
        <ele>988.03</ele>
        <time>2016-02-16T09:46:22Z</time>
      </trkpt>
      <trkpt lat="47.99384" lon="6.92772">
        <ele>991.13</ele>
        <time>2016-02-16T09:46:56Z</time>
      </trkpt>
      <trkpt lat="47.99371" lon="6.92744">
        <ele>992.34</ele>
        <time>2016-02-16T09:47:28Z</time>
      </trkpt>
      <trkpt lat="47.99359" lon="6.92716">
        <ele>994.73</ele>
        <time>2016-02-16T09:48:02Z</time>
      </trkpt>
      <trkpt lat="47.99343" lon="6.9269">
        <ele>996.97</ele>
        <time>2016-02-16T09:48:37Z</time>
      </trkpt>
      <trkpt lat="47.99328" lon="6.92669">
        <ele>997.83</ele>
        <time>2016-02-16T09:49:32Z</time>
      </trkpt>
      <trkpt lat="47.99311" lon="6.92648">
        <ele>999.96</ele>
        <time>2016-02-16T09:50:04Z</time>
      </trkpt>
      <trkpt lat="47.99295" lon="6.92625">
        <ele>1003.2</ele>
        <time>2016-02-16T09:50:35Z</time>
      </trkpt>
      <trkpt lat="47.99274" lon="6.92617">
        <ele>1003.3</ele>
        <time>2016-02-16T09:51:27Z</time>
      </trkpt>
      <trkpt lat="47.99271" lon="6.92617">
        <ele>1002.34</ele>
        <time>2016-02-16T09:52:41Z</time>
      </trkpt>
      <trkpt lat="47.99252" lon="6.92605">
        <ele>1005.73</ele>
        <time>2016-02-16T09:53:36Z</time>
      </trkpt>
      <trkpt lat="47.99233" lon="6.92584">
        <ele>1007.88</ele>
        <time>2016-02-16T09:54:14Z</time>
      </trkpt>
      <trkpt lat="47.99213" lon="6.92565">
        <ele>1009.39</ele>
        <time>2016-02-16T09:54:53Z</time>
      </trkpt>
      <trkpt lat="47.99204" lon="6.92561">
        <ele>1010.6</ele>
        <time>2016-02-16T09:55:33Z</time>
      </trkpt>
      <trkpt lat="47.99206" lon="6.92555">
        <ele>1009.53</ele>
        <time>2016-02-16T09:56:48Z</time>
      </trkpt>
      <trkpt lat="47.99195" lon="6.92538">
        <ele>1010.39</ele>
        <time>2016-02-16T09:57:21Z</time>
      </trkpt>
      <trkpt lat="47.99193" lon="6.92517">
        <ele>1013.08</ele>
        <time>2016-02-16T09:57:46Z</time>
      </trkpt>
      <trkpt lat="47.99198" lon="6.92486">
        <ele>1014.49</ele>
        <time>2016-02-16T09:58:21Z</time>
      </trkpt>
      <trkpt lat="47.992" lon="6.92448">
        <ele>1016.16</ele>
        <time>2016-02-16T09:59:02Z</time>
      </trkpt>
      <trkpt lat="47.99201" lon="6.92412">
        <ele>1018.08</ele>
        <time>2016-02-16T09:59:38Z</time>
      </trkpt>
      <trkpt lat="47.99198" lon="6.92384">
        <ele>1021.07</ele>
        <time>2016-02-16T10:00:21Z</time>
      </trkpt>
      <trkpt lat="47.99198" lon="6.92357">
        <ele>1022.13</ele>
        <time>2016-02-16T10:00:57Z</time>
      </trkpt>
      <trkpt lat="47.99193" lon="6.92329">
        <ele>1025.55</ele>
        <time>2016-02-16T10:01:29Z</time>
      </trkpt>
      <trkpt lat="47.99186" lon="6.92298">
        <ele>1027.02</ele>
        <time>2016-02-16T10:01:55Z</time>
      </trkpt>
      <trkpt lat="47.99176" lon="6.92271">
        <ele>1028.2</ele>
        <time>2016-02-16T10:02:21Z</time>
      </trkpt>
      <trkpt lat="47.99162" lon="6.92253">
        <ele>1030.21</ele>
        <time>2016-02-16T10:02:49Z</time>
      </trkpt>
      <trkpt lat="47.99147" lon="6.92239">
        <ele>1031.9</ele>
        <time>2016-02-16T10:03:48Z</time>
      </trkpt>
      <trkpt lat="47.99135" lon="6.92241">
        <ele>1033.43</ele>
        <time>2016-02-16T10:05:47Z</time>
      </trkpt>
      <trkpt lat="47.99118" lon="6.92249">
        <ele>1035.82</ele>
        <time>2016-02-16T10:06:29Z</time>
      </trkpt>
      <trkpt lat="47.99123" lon="6.92279">
        <ele>1037.96</ele>
        <time>2016-02-16T10:07:03Z</time>
      </trkpt>
      <trkpt lat="47.99137" lon="6.92305">
        <ele>1038.75</ele>
        <time>2016-02-16T10:07:35Z</time>
      </trkpt>
      <trkpt lat="47.99141" lon="6.92337">
        <ele>1040.57</ele>
        <time>2016-02-16T10:08:05Z</time>
      </trkpt>
      <trkpt lat="47.9914" lon="6.92375">
        <ele>1040.25</ele>
        <time>2016-02-16T10:08:37Z</time>
      </trkpt>
      <trkpt lat="47.99136" lon="6.9242">
        <ele>1040.8</ele>
        <time>2016-02-16T10:09:14Z</time>
      </trkpt>
      <trkpt lat="47.99126" lon="6.92458">
        <ele>1041.88</ele>
        <time>2016-02-16T10:09:49Z</time>
      </trkpt>
      <trkpt lat="47.99114" lon="6.92503">
        <ele>1042.99</ele>
        <time>2016-02-16T10:10:25Z</time>
      </trkpt>
      <trkpt lat="47.99103" lon="6.92543">
        <ele>1043.47</ele>
        <time>2016-02-16T10:10:59Z</time>
      </trkpt>
      <trkpt lat="47.991" lon="6.92578">
        <ele>1045.08</ele>
        <time>2016-02-16T10:11:35Z</time>
      </trkpt>
      <trkpt lat="47.99094" lon="6.92623">
        <ele>1047.02</ele>
        <time>2016-02-16T10:12:06Z</time>
      </trkpt>
      <trkpt lat="47.99088" lon="6.9266">
        <ele>1046.36</ele>
        <time>2016-02-16T10:12:35Z</time>
      </trkpt>
      <trkpt lat="47.99078" lon="6.92695">
        <ele>1047.84</ele>
        <time>2016-02-16T10:13:28Z</time>
      </trkpt>
      <trkpt lat="47.99063" lon="6.92709">
        <ele>1049.07</ele>
        <time>2016-02-16T10:13:54Z</time>
      </trkpt>
      <trkpt lat="47.99056" lon="6.92703">
        <ele>1049.95</ele>
        <time>2016-02-16T10:14:42Z</time>
      </trkpt>
      <trkpt lat="47.99056" lon="6.92685">
        <ele>1050.1</ele>
        <time>2016-02-16T10:15:22Z</time>
      </trkpt>
      <trkpt lat="47.9906" lon="6.92711">
        <ele>1049.48</ele>
        <time>2016-02-16T10:16:15Z</time>
      </trkpt>
      <trkpt lat="47.9906" lon="6.92715">
        <ele>1051.01</ele>
        <time>2016-02-16T10:18:32Z</time>
      </trkpt>
      <trkpt lat="47.99071" lon="6.92697">
        <ele>1049.24</ele>
        <time>2016-02-16T10:19:34Z</time>
      </trkpt>
      <trkpt lat="47.99058" lon="6.9271">
        <ele>1051.86</ele>
        <time>2016-02-16T10:20:57Z</time>
      </trkpt>
      <trkpt lat="47.99062" lon="6.9271">
        <ele>1053.12</ele>
        <time>2016-02-16T10:22:58Z</time>
      </trkpt>
      <trkpt lat="47.99041" lon="6.92725">
        <ele>1052.69</ele>
        <time>2016-02-16T10:24:22Z</time>
      </trkpt>
      <trkpt lat="47.99021" lon="6.92744">
        <ele>1051.49</ele>
        <time>2016-02-16T10:24:51Z</time>
      </trkpt>
      <trkpt lat="47.99004" lon="6.92767">
        <ele>1050.71</ele>
        <time>2016-02-16T10:25:19Z</time>
      </trkpt>
      <trkpt lat="47.98985" lon="6.92793">
        <ele>1049.17</ele>
        <time>2016-02-16T10:25:46Z</time>
      </trkpt>
      <trkpt lat="47.98959" lon="6.92808">
        <ele>1048.76</ele>
        <time>2016-02-16T10:26:14Z</time>
      </trkpt>
      <trkpt lat="47.98936" lon="6.92821">
        <ele>1047.58</ele>
        <time>2016-02-16T10:26:40Z</time>
      </trkpt>
      <trkpt lat="47.98911" lon="6.92831">
        <ele>1044.82</ele>
        <time>2016-02-16T10:27:08Z</time>
      </trkpt>
      <trkpt lat="47.98886" lon="6.92839">
        <ele>1044.14</ele>
        <time>2016-02-16T10:27:37Z</time>
      </trkpt>
      <trkpt lat="47.98863" lon="6.92841">
        <ele>1042.54</ele>
        <time>2016-02-16T10:28:03Z</time>
      </trkpt>
      <trkpt lat="47.98838" lon="6.9284">
        <ele>1041.16</ele>
        <time>2016-02-16T10:28:30Z</time>
      </trkpt>
      <trkpt lat="47.98812" lon="6.92843">
        <ele>1040.36</ele>
        <time>2016-02-16T10:28:58Z</time>
      </trkpt>
      <trkpt lat="47.98789" lon="6.92846">
        <ele>1039.75</ele>
        <time>2016-02-16T10:29:25Z</time>
      </trkpt>
      <trkpt lat="47.98765" lon="6.92852">
        <ele>1040.33</ele>
        <time>2016-02-16T10:29:52Z</time>
      </trkpt>
      <trkpt lat="47.98744" lon="6.92854">
        <ele>1038.47</ele>
        <time>2016-02-16T10:30:18Z</time>
      </trkpt>
      <trkpt lat="47.9872" lon="6.9286">
        <ele>1039</ele>
        <time>2016-02-16T10:30:43Z</time>
      </trkpt>
      <trkpt lat="47.987" lon="6.92871">
        <ele>1038.49</ele>
        <time>2016-02-16T10:31:10Z</time>
      </trkpt>
      <trkpt lat="47.98675" lon="6.92884">
        <ele>1036.67</ele>
        <time>2016-02-16T10:31:40Z</time>
      </trkpt>
      <trkpt lat="47.98652" lon="6.92908">
        <ele>1035.63</ele>
        <time>2016-02-16T10:32:13Z</time>
      </trkpt>
      <trkpt lat="47.98631" lon="6.92942">
        <ele>1034.59</ele>
        <time>2016-02-16T10:32:44Z</time>
      </trkpt>
      <trkpt lat="47.98618" lon="6.92976">
        <ele>1032.84</ele>
        <time>2016-02-16T10:33:12Z</time>
      </trkpt>
      <trkpt lat="47.98608" lon="6.93014">
        <ele>1030.82</ele>
        <time>2016-02-16T10:33:41Z</time>
      </trkpt>
      <trkpt lat="47.98617" lon="6.93048">
        <ele>1029.87</ele>
        <time>2016-02-16T10:34:12Z</time>
      </trkpt>
      <trkpt lat="47.98625" lon="6.93088">
        <ele>1028.96</ele>
        <time>2016-02-16T10:34:46Z</time>
      </trkpt>
      <trkpt lat="47.98631" lon="6.93121">
        <ele>1027.73</ele>
        <time>2016-02-16T10:35:11Z</time>
      </trkpt>
      <trkpt lat="47.9864" lon="6.93142">
        <ele>1026.44</ele>
        <time>2016-02-16T10:35:57Z</time>
      </trkpt>
      <trkpt lat="47.98643" lon="6.93166">
        <ele>1025.89</ele>
        <time>2016-02-16T10:36:43Z</time>
      </trkpt>
      <trkpt lat="47.98648" lon="6.93198">
        <ele>1023.83</ele>
        <time>2016-02-16T10:37:11Z</time>
      </trkpt>
      <trkpt lat="47.98645" lon="6.93231">
        <ele>1022.39</ele>
        <time>2016-02-16T10:37:40Z</time>
      </trkpt>
      <trkpt lat="47.98642" lon="6.93266">
        <ele>1020.13</ele>
        <time>2016-02-16T10:38:10Z</time>
      </trkpt>
      <trkpt lat="47.98639" lon="6.93299">
        <ele>1018.36</ele>
        <time>2016-02-16T10:38:40Z</time>
      </trkpt>
      <trkpt lat="47.98623" lon="6.93334">
        <ele>1015.58</ele>
        <time>2016-02-16T10:39:12Z</time>
      </trkpt>
      <trkpt lat="47.98614" lon="6.93372">
        <ele>1014.97</ele>
        <time>2016-02-16T10:39:39Z</time>
      </trkpt>
      <trkpt lat="47.98603" lon="6.93414">
        <ele>1012.86</ele>
        <time>2016-02-16T10:40:04Z</time>
      </trkpt>
      <trkpt lat="47.9859" lon="6.93439">
        <ele>1012.33</ele>
        <time>2016-02-16T10:40:29Z</time>
      </trkpt>
      <trkpt lat="47.98572" lon="6.93457">
        <ele>1010.66</ele>
        <time>2016-02-16T10:41:03Z</time>
      </trkpt>
      <trkpt lat="47.98557" lon="6.93489">
        <ele>1007.82</ele>
        <time>2016-02-16T10:41:26Z</time>
      </trkpt>
      <trkpt lat="47.98531" lon="6.93517">
        <ele>1006.49</ele>
        <time>2016-02-16T10:42:00Z</time>
      </trkpt>
      <trkpt lat="47.98507" lon="6.93541">
        <ele>1004.76</ele>
        <time>2016-02-16T10:42:33Z</time>
      </trkpt>
      <trkpt lat="47.98489" lon="6.93565">
        <ele>1003.5</ele>
        <time>2016-02-16T10:43:10Z</time>
      </trkpt>
      <trkpt lat="47.98465" lon="6.93587">
        <ele>1003.36</ele>
        <time>2016-02-16T10:43:30Z</time>
      </trkpt>
      <trkpt lat="47.9844" lon="6.936">
        <ele>1001.21</ele>
        <time>2016-02-16T10:43:54Z</time>
      </trkpt>
      <trkpt lat="47.98415" lon="6.93616">
        <ele>998.91</ele>
        <time>2016-02-16T10:44:24Z</time>
      </trkpt>
      <trkpt lat="47.98394" lon="6.93641">
        <ele>998.14</ele>
        <time>2016-02-16T10:44:57Z</time>
      </trkpt>
      <trkpt lat="47.98384" lon="6.93681">
        <ele>997.75</ele>
        <time>2016-02-16T10:45:28Z</time>
      </trkpt>
      <trkpt lat="47.9838" lon="6.93718">
        <ele>996.66</ele>
        <time>2016-02-16T10:45:55Z</time>
      </trkpt>
      <trkpt lat="47.98364" lon="6.93756">
        <ele>996.02</ele>
        <time>2016-02-16T10:46:22Z</time>
      </trkpt>
      <trkpt lat="47.9835" lon="6.93775">
        <ele>994.93</ele>
        <time>2016-02-16T10:46:47Z</time>
      </trkpt>
      <trkpt lat="47.98334" lon="6.93784">
        <ele>995.09</ele>
        <time>2016-02-16T10:47:34Z</time>
      </trkpt>
      <trkpt lat="47.98315" lon="6.93786">
        <ele>993.42</ele>
        <time>2016-02-16T10:47:55Z</time>
      </trkpt>
      <trkpt lat="47.98293" lon="6.93782">
        <ele>993.89</ele>
        <time>2016-02-16T10:48:16Z</time>
      </trkpt>
      <trkpt lat="47.98273" lon="6.93776">
        <ele>993.36</ele>
        <time>2016-02-16T10:48:37Z</time>
      </trkpt>
      <trkpt lat="47.98249" lon="6.93776">
        <ele>992.56</ele>
        <time>2016-02-16T10:49:02Z</time>
      </trkpt>
      <trkpt lat="47.98229" lon="6.93771">
        <ele>991.64</ele>
        <time>2016-02-16T10:49:23Z</time>
      </trkpt>
      <trkpt lat="47.98207" lon="6.93767">
        <ele>991.12</ele>
        <time>2016-02-16T10:49:46Z</time>
      </trkpt>
      <trkpt lat="47.98186" lon="6.93768">
        <ele>990.79</ele>
        <time>2016-02-16T10:50:13Z</time>
      </trkpt>
      <trkpt lat="47.98165" lon="6.93767">
        <ele>989.58</ele>
        <time>2016-02-16T10:50:39Z</time>
      </trkpt>
      <trkpt lat="47.98143" lon="6.93768">
        <ele>989.6</ele>
        <time>2016-02-16T10:51:08Z</time>
      </trkpt>
      <trkpt lat="47.98122" lon="6.93761">
        <ele>988.88</ele>
        <time>2016-02-16T10:51:31Z</time>
      </trkpt>
      <trkpt lat="47.981" lon="6.93754">
        <ele>989.14</ele>
        <time>2016-02-16T10:51:53Z</time>
      </trkpt>
      <trkpt lat="47.98084" lon="6.93736">
        <ele>989.21</ele>
        <time>2016-02-16T10:52:19Z</time>
      </trkpt>
      <trkpt lat="47.98066" lon="6.93715">
        <ele>989.53</ele>
        <time>2016-02-16T10:52:46Z</time>
      </trkpt>
      <trkpt lat="47.98044" lon="6.93694">
        <ele>990.22</ele>
        <time>2016-02-16T10:53:14Z</time>
      </trkpt>
      <trkpt lat="47.98032" lon="6.93663">
        <ele>992.17</ele>
        <time>2016-02-16T10:53:47Z</time>
      </trkpt>
      <trkpt lat="47.98023" lon="6.93631">
        <ele>992.31</ele>
        <time>2016-02-16T10:54:17Z</time>
      </trkpt>
      <trkpt lat="47.98014" lon="6.93597">
        <ele>994.48</ele>
        <time>2016-02-16T10:54:50Z</time>
      </trkpt>
      <trkpt lat="47.98" lon="6.93559">
        <ele>995.43</ele>
        <time>2016-02-16T10:55:19Z</time>
      </trkpt>
      <trkpt lat="47.97989" lon="6.93528">
        <ele>996.74</ele>
        <time>2016-02-16T10:55:46Z</time>
      </trkpt>
      <trkpt lat="47.9798" lon="6.93499">
        <ele>998.27</ele>
        <time>2016-02-16T10:56:19Z</time>
      </trkpt>
      <trkpt lat="47.97963" lon="6.9348">
        <ele>998.17</ele>
        <time>2016-02-16T10:56:41Z</time>
      </trkpt>
      <trkpt lat="47.97945" lon="6.93454">
        <ele>998.85</ele>
        <time>2016-02-16T10:57:06Z</time>
      </trkpt>
      <trkpt lat="47.97936" lon="6.93428">
        <ele>998.31</ele>
        <time>2016-02-16T10:57:34Z</time>
      </trkpt>
      <trkpt lat="47.97916" lon="6.93415">
        <ele>999.47</ele>
        <time>2016-02-16T10:58:00Z</time>
      </trkpt>
      <trkpt lat="47.97897" lon="6.93408">
        <ele>999.52</ele>
        <time>2016-02-16T10:58:20Z</time>
      </trkpt>
      <trkpt lat="47.97877" lon="6.93405">
        <ele>997.79</ele>
        <time>2016-02-16T10:58:44Z</time>
      </trkpt>
      <trkpt lat="47.97856" lon="6.93399">
        <ele>998.04</ele>
        <time>2016-02-16T10:59:07Z</time>
      </trkpt>
      <trkpt lat="47.97836" lon="6.93399">
        <ele>996.89</ele>
        <time>2016-02-16T10:59:30Z</time>
      </trkpt>
      <trkpt lat="47.97815" lon="6.93399">
        <ele>996.6</ele>
        <time>2016-02-16T10:59:52Z</time>
      </trkpt>
      <trkpt lat="47.97793" lon="6.93402">
        <ele>995.97</ele>
        <time>2016-02-16T11:00:17Z</time>
      </trkpt>
      <trkpt lat="47.97775" lon="6.93412">
        <ele>997.16</ele>
        <time>2016-02-16T11:00:52Z</time>
      </trkpt>
      <trkpt lat="47.9777" lon="6.93394">
        <ele>993.36</ele>
        <time>2016-02-16T11:01:36Z</time>
      </trkpt>
      <trkpt lat="47.97784" lon="6.93369">
        <ele>989.77</ele>
        <time>2016-02-16T11:02:14Z</time>
      </trkpt>
      <trkpt lat="47.97785" lon="6.93344">
        <ele>988.45</ele>
        <time>2016-02-16T11:03:11Z</time>
      </trkpt>
      <trkpt lat="47.97781" lon="6.93356">
        <ele>988.97</ele>
        <time>2016-02-16T11:04:23Z</time>
      </trkpt>
      <trkpt lat="47.97781" lon="6.93354">
        <ele>991.38</ele>
        <time>2016-02-16T11:05:39Z</time>
      </trkpt>
      <trkpt lat="47.97776" lon="6.93348">
        <ele>992.02</ele>
        <time>2016-02-16T11:06:21Z</time>
      </trkpt>
      <trkpt lat="47.97778" lon="6.93345">
        <ele>992.47</ele>
        <time>2016-02-16T11:07:13Z</time>
      </trkpt>
      <trkpt lat="47.97788" lon="6.93352">
        <ele>992.72</ele>
        <time>2016-02-16T11:07:48Z</time>
      </trkpt>
      <trkpt lat="47.97779" lon="6.93348">
        <ele>994.08</ele>
        <time>2016-02-16T11:08:37Z</time>
      </trkpt>
      <trkpt lat="47.97785" lon="6.93352">
        <ele>994.54</ele>
        <time>2016-02-16T11:09:19Z</time>
      </trkpt>
      <trkpt lat="47.97785" lon="6.93361">
        <ele>995.01</ele>
        <time>2016-02-16T11:09:59Z</time>
      </trkpt>
      <trkpt lat="47.97781" lon="6.93358">
        <ele>995.87</ele>
        <time>2016-02-16T11:10:40Z</time>
      </trkpt>
      <trkpt lat="47.97784" lon="6.93352">
        <ele>996.88</ele>
        <time>2016-02-16T11:11:30Z</time>
      </trkpt>
      <trkpt lat="47.97779" lon="6.93357">
        <ele>996.48</ele>
        <time>2016-02-16T11:12:20Z</time>
      </trkpt>
      <trkpt lat="47.97788" lon="6.93363">
        <ele>996.97</ele>
        <time>2016-02-16T11:12:58Z</time>
      </trkpt>
      <trkpt lat="47.97795" lon="6.93366">
        <ele>997.88</ele>
        <time>2016-02-16T11:13:45Z</time>
      </trkpt>
      <trkpt lat="47.97793" lon="6.93375">
        <ele>997.83</ele>
        <time>2016-02-16T11:14:22Z</time>
      </trkpt>
      <trkpt lat="47.97783" lon="6.93358">
        <ele>999.18</ele>
        <time>2016-02-16T11:15:01Z</time>
      </trkpt>
      <trkpt lat="47.97795" lon="6.93351">
        <ele>999.25</ele>
        <time>2016-02-16T11:15:51Z</time>
      </trkpt>
      <trkpt lat="47.97789" lon="6.93347">
        <ele>1000.25</ele>
        <time>2016-02-16T11:16:46Z</time>
      </trkpt>
      <trkpt lat="47.9779" lon="6.93362">
        <ele>1000.43</ele>
        <time>2016-02-16T11:17:42Z</time>
      </trkpt>
      <trkpt lat="47.97788" lon="6.93368">
        <ele>1000.69</ele>
        <time>2016-02-16T11:18:50Z</time>
      </trkpt>
      <trkpt lat="47.9779" lon="6.93366">
        <ele>1000.86</ele>
        <time>2016-02-16T11:19:49Z</time>
      </trkpt>
      <trkpt lat="47.97789" lon="6.93362">
        <ele>1001.17</ele>
        <time>2016-02-16T11:20:33Z</time>
      </trkpt>
      <trkpt lat="47.97796" lon="6.93363">
        <ele>1001.25</ele>
        <time>2016-02-16T11:21:21Z</time>
      </trkpt>
      <trkpt lat="47.97792" lon="6.93364">
        <ele>1002.18</ele>
        <time>2016-02-16T11:22:15Z</time>
      </trkpt>
      <trkpt lat="47.97791" lon="6.93369">
        <ele>1002.45</ele>
        <time>2016-02-16T11:23:09Z</time>
      </trkpt>
      <trkpt lat="47.97788" lon="6.93367">
        <ele>1002.1</ele>
        <time>2016-02-16T11:24:18Z</time>
      </trkpt>
      <trkpt lat="47.97796" lon="6.9336">
        <ele>1002.46</ele>
        <time>2016-02-16T11:24:57Z</time>
      </trkpt>
      <trkpt lat="47.97792" lon="6.93366">
        <ele>1002.53</ele>
        <time>2016-02-16T11:25:31Z</time>
      </trkpt>
      <trkpt lat="47.97799" lon="6.93362">
        <ele>1003.26</ele>
        <time>2016-02-16T11:26:25Z</time>
      </trkpt>
      <trkpt lat="47.97809" lon="6.93364">
        <ele>1003.06</ele>
        <time>2016-02-16T11:27:10Z</time>
      </trkpt>
      <trkpt lat="47.97799" lon="6.93366">
        <ele>1004.16</ele>
        <time>2016-02-16T11:28:08Z</time>
      </trkpt>
      <trkpt lat="47.97795" lon="6.93366">
        <ele>1003.32</ele>
        <time>2016-02-16T11:28:59Z</time>
      </trkpt>
      <trkpt lat="47.9779" lon="6.93366">
        <ele>1003.78</ele>
        <time>2016-02-16T11:29:45Z</time>
      </trkpt>
      <trkpt lat="47.97798" lon="6.93369">
        <ele>1002.87</ele>
        <time>2016-02-16T11:30:32Z</time>
      </trkpt>
      <trkpt lat="47.97807" lon="6.93375">
        <ele>1003.95</ele>
        <time>2016-02-16T11:31:17Z</time>
      </trkpt>
      <trkpt lat="47.97793" lon="6.93353">
        <ele>1003.55</ele>
        <time>2016-02-16T11:31:59Z</time>
      </trkpt>
      <trkpt lat="47.97778" lon="6.93362">
        <ele>1003.87</ele>
        <time>2016-02-16T11:32:50Z</time>
      </trkpt>
      <trkpt lat="47.97781" lon="6.93358">
        <ele>1003.02</ele>
        <time>2016-02-16T11:33:23Z</time>
      </trkpt>
      <trkpt lat="47.97783" lon="6.93357">
        <ele>1003.12</ele>
        <time>2016-02-16T11:33:50Z</time>
      </trkpt>
      <trkpt lat="47.97802" lon="6.9337">
        <ele>1003.3</ele>
        <time>2016-02-16T11:34:26Z</time>
      </trkpt>
      <trkpt lat="47.97804" lon="6.93373">
        <ele>1003.77</ele>
        <time>2016-02-16T11:35:10Z</time>
      </trkpt>
      <trkpt lat="47.97801" lon="6.93366">
        <ele>1004.5</ele>
        <time>2016-02-16T11:35:55Z</time>
      </trkpt>
      <trkpt lat="47.97794" lon="6.93364">
        <ele>1003.81</ele>
        <time>2016-02-16T11:36:35Z</time>
      </trkpt>
      <trkpt lat="47.97787" lon="6.9336">
        <ele>1003.95</ele>
        <time>2016-02-16T11:37:11Z</time>
      </trkpt>
      <trkpt lat="47.9779" lon="6.9336">
        <ele>1003.1</ele>
        <time>2016-02-16T11:37:42Z</time>
      </trkpt>
      <trkpt lat="47.97786" lon="6.93363">
        <ele>1003.4</ele>
        <time>2016-02-16T11:38:28Z</time>
      </trkpt>
      <trkpt lat="47.97789" lon="6.93352">
        <ele>1003.13</ele>
        <time>2016-02-16T11:39:13Z</time>
      </trkpt>
      <trkpt lat="47.97778" lon="6.93351">
        <ele>1003.7</ele>
        <time>2016-02-16T11:39:51Z</time>
      </trkpt>
      <trkpt lat="47.97798" lon="6.93357">
        <ele>1002.67</ele>
        <time>2016-02-16T11:40:29Z</time>
      </trkpt>
      <trkpt lat="47.97802" lon="6.93366">
        <ele>1003.36</ele>
        <time>2016-02-16T11:41:05Z</time>
      </trkpt>
      <trkpt lat="47.97785" lon="6.9336">
        <ele>1002.84</ele>
        <time>2016-02-16T11:41:48Z</time>
      </trkpt>
      <trkpt lat="47.9781" lon="6.93379">
        <ele>1002.89</ele>
        <time>2016-02-16T11:42:25Z</time>
      </trkpt>
      <trkpt lat="47.9781" lon="6.93373">
        <ele>1002.33</ele>
        <time>2016-02-16T11:43:05Z</time>
      </trkpt>
      <trkpt lat="47.97799" lon="6.93356">
        <ele>1002.71</ele>
        <time>2016-02-16T11:43:51Z</time>
      </trkpt>
      <trkpt lat="47.97802" lon="6.93362">
        <ele>1002.55</ele>
        <time>2016-02-16T11:44:24Z</time>
      </trkpt>
      <trkpt lat="47.97795" lon="6.93363">
        <ele>1002.66</ele>
        <time>2016-02-16T11:45:02Z</time>
      </trkpt>
      <trkpt lat="47.97786" lon="6.93368">
        <ele>1002.17</ele>
        <time>2016-02-16T11:45:38Z</time>
      </trkpt>
      <trkpt lat="47.97787" lon="6.93373">
        <ele>1002.08</ele>
        <time>2016-02-16T11:46:17Z</time>
      </trkpt>
      <trkpt lat="47.97795" lon="6.93374">
        <ele>1001.66</ele>
        <time>2016-02-16T11:47:08Z</time>
      </trkpt>
      <trkpt lat="47.97797" lon="6.93369">
        <ele>1001.78</ele>
        <time>2016-02-16T11:48:00Z</time>
      </trkpt>
      <trkpt lat="47.97792" lon="6.93368">
        <ele>1002.37</ele>
        <time>2016-02-16T11:48:45Z</time>
      </trkpt>
      <trkpt lat="47.97797" lon="6.93367">
        <ele>1002.21</ele>
        <time>2016-02-16T11:49:42Z</time>
      </trkpt>
      <trkpt lat="47.978" lon="6.93365">
        <ele>1002.07</ele>
        <time>2016-02-16T11:50:27Z</time>
      </trkpt>
      <trkpt lat="47.97795" lon="6.93364">
        <ele>1001.93</ele>
        <time>2016-02-16T11:51:36Z</time>
      </trkpt>
      <trkpt lat="47.97804" lon="6.93364">
        <ele>1001.4</ele>
        <time>2016-02-16T11:52:36Z</time>
      </trkpt>
      <trkpt lat="47.97804" lon="6.9337">
        <ele>1001.85</ele>
        <time>2016-02-16T11:53:11Z</time>
      </trkpt>
      <trkpt lat="47.9779" lon="6.93361">
        <ele>1001.37</ele>
        <time>2016-02-16T11:53:52Z</time>
      </trkpt>
      <trkpt lat="47.97786" lon="6.93356">
        <ele>1002.17</ele>
        <time>2016-02-16T11:54:43Z</time>
      </trkpt>
      <trkpt lat="47.97786" lon="6.93358">
        <ele>1001.69</ele>
        <time>2016-02-16T11:55:30Z</time>
      </trkpt>
      <trkpt lat="47.97788" lon="6.93362">
        <ele>1001.78</ele>
        <time>2016-02-16T11:56:30Z</time>
      </trkpt>
      <trkpt lat="47.97791" lon="6.93359">
        <ele>1002.08</ele>
        <time>2016-02-16T11:57:22Z</time>
      </trkpt>
      <trkpt lat="47.97794" lon="6.93355">
        <ele>1001.74</ele>
        <time>2016-02-16T11:58:02Z</time>
      </trkpt>
      <trkpt lat="47.97798" lon="6.93356">
        <ele>1001.59</ele>
        <time>2016-02-16T11:58:47Z</time>
      </trkpt>
      <trkpt lat="47.97797" lon="6.93372">
        <ele>1002.34</ele>
        <time>2016-02-16T11:59:28Z</time>
      </trkpt>
      <trkpt lat="47.97795" lon="6.93369">
        <ele>1002.16</ele>
        <time>2016-02-16T12:00:12Z</time>
      </trkpt>
      <trkpt lat="47.97806" lon="6.93374">
        <ele>1002.36</ele>
        <time>2016-02-16T12:00:49Z</time>
      </trkpt>
      <trkpt lat="47.97792" lon="6.93368">
        <ele>1002.07</ele>
        <time>2016-02-16T12:01:28Z</time>
      </trkpt>
      <trkpt lat="47.97783" lon="6.9337">
        <ele>1001.77</ele>
        <time>2016-02-16T12:02:18Z</time>
      </trkpt>
      <trkpt lat="47.97792" lon="6.93368">
        <ele>1002.01</ele>
        <time>2016-02-16T12:02:57Z</time>
      </trkpt>
      <trkpt lat="47.978" lon="6.93362">
        <ele>1002.07</ele>
        <time>2016-02-16T12:03:39Z</time>
      </trkpt>
      <trkpt lat="47.97785" lon="6.93365">
        <ele>1002.05</ele>
        <time>2016-02-16T12:04:23Z</time>
      </trkpt>
      <trkpt lat="47.97792" lon="6.93369">
        <ele>1001.73</ele>
        <time>2016-02-16T12:04:56Z</time>
      </trkpt>
      <trkpt lat="47.97792" lon="6.93373">
        <ele>1002.15</ele>
        <time>2016-02-16T12:05:41Z</time>
      </trkpt>
      <trkpt lat="47.97794" lon="6.93361">
        <ele>1002.32</ele>
        <time>2016-02-16T12:06:34Z</time>
      </trkpt>
      <trkpt lat="47.97782" lon="6.93367">
        <ele>1002.1</ele>
        <time>2016-02-16T12:07:13Z</time>
      </trkpt>
      <trkpt lat="47.97779" lon="6.93368">
        <ele>1002.61</ele>
        <time>2016-02-16T12:08:04Z</time>
      </trkpt>
      <trkpt lat="47.97783" lon="6.93364">
        <ele>1002.15</ele>
        <time>2016-02-16T12:08:47Z</time>
      </trkpt>
      <trkpt lat="47.97786" lon="6.93365">
        <ele>1001.31</ele>
        <time>2016-02-16T12:09:24Z</time>
      </trkpt>
      <trkpt lat="47.97777" lon="6.9337">
        <ele>1001.58</ele>
        <time>2016-02-16T12:10:01Z</time>
      </trkpt>
      <trkpt lat="47.97785" lon="6.93357">
        <ele>1001.48</ele>
        <time>2016-02-16T12:10:45Z</time>
      </trkpt>
      <trkpt lat="47.97784" lon="6.93355">
        <ele>1000.9</ele>
        <time>2016-02-16T12:11:24Z</time>
      </trkpt>
      <trkpt lat="47.97779" lon="6.93354">
        <ele>998.1</ele>
        <time>2016-02-16T12:12:26Z</time>
      </trkpt>
      <trkpt lat="47.9778" lon="6.93358">
        <ele>1001.67</ele>
        <time>2016-02-16T12:13:16Z</time>
      </trkpt>
      <trkpt lat="47.9779" lon="6.93365">
        <ele>999.29</ele>
        <time>2016-02-16T12:14:17Z</time>
      </trkpt>
      <trkpt lat="47.9779" lon="6.93362">
        <ele>1001.1</ele>
        <time>2016-02-16T12:15:02Z</time>
      </trkpt>
      <trkpt lat="47.97776" lon="6.93358">
        <ele>1000.83</ele>
        <time>2016-02-16T12:15:53Z</time>
      </trkpt>
      <trkpt lat="47.97779" lon="6.9338">
        <ele>1004.61</ele>
        <time>2016-02-16T12:16:36Z</time>
      </trkpt>
      <trkpt lat="47.9777" lon="6.93398">
        <ele>1008.36</ele>
        <time>2016-02-16T12:17:26Z</time>
      </trkpt>
      <trkpt lat="47.97764" lon="6.93415">
        <ele>1011.66</ele>
        <time>2016-02-16T12:18:27Z</time>
      </trkpt>
      <trkpt lat="47.9778" lon="6.93414">
        <ele>1012.47</ele>
        <time>2016-02-16T12:19:08Z</time>
      </trkpt>
      <trkpt lat="47.978" lon="6.9341">
        <ele>1011.85</ele>
        <time>2016-02-16T12:19:37Z</time>
      </trkpt>
      <trkpt lat="47.97825" lon="6.93405">
        <ele>1012.49</ele>
        <time>2016-02-16T12:20:04Z</time>
      </trkpt>
      <trkpt lat="47.97852" lon="6.93409">
        <ele>1013.22</ele>
        <time>2016-02-16T12:20:37Z</time>
      </trkpt>
      <trkpt lat="47.97874" lon="6.9342">
        <ele>1014.56</ele>
        <time>2016-02-16T12:21:15Z</time>
      </trkpt>
      <trkpt lat="47.97891" lon="6.93431">
        <ele>1016.32</ele>
        <time>2016-02-16T12:22:00Z</time>
      </trkpt>
      <trkpt lat="47.97905" lon="6.93457">
        <ele>1020.52</ele>
        <time>2016-02-16T12:22:39Z</time>
      </trkpt>
      <trkpt lat="47.97908" lon="6.93477">
        <ele>1020.57</ele>
        <time>2016-02-16T12:23:58Z</time>
      </trkpt>
      <trkpt lat="47.97915" lon="6.93499">
        <ele>1024.72</ele>
        <time>2016-02-16T12:24:59Z</time>
      </trkpt>
      <trkpt lat="47.97927" lon="6.93525">
        <ele>1026.42</ele>
        <time>2016-02-16T12:25:38Z</time>
      </trkpt>
      <trkpt lat="47.97933" lon="6.93556">
        <ele>1028.9</ele>
        <time>2016-02-16T12:26:24Z</time>
      </trkpt>
      <trkpt lat="47.97936" lon="6.93576">
        <ele>1030.48</ele>
        <time>2016-02-16T12:27:10Z</time>
      </trkpt>
      <trkpt lat="47.97948" lon="6.93612">
        <ele>1031.95</ele>
        <time>2016-02-16T12:27:44Z</time>
      </trkpt>
      <trkpt lat="47.97961" lon="6.93635">
        <ele>1033.4</ele>
        <time>2016-02-16T12:28:19Z</time>
      </trkpt>
      <trkpt lat="47.97962" lon="6.93654">
        <ele>1032.22</ele>
        <time>2016-02-16T12:29:11Z</time>
      </trkpt>
      <trkpt lat="47.97967" lon="6.93683">
        <ele>1032.88</ele>
        <time>2016-02-16T12:29:48Z</time>
      </trkpt>
      <trkpt lat="47.97961" lon="6.93713">
        <ele>1035.53</ele>
        <time>2016-02-16T12:30:26Z</time>
      </trkpt>
      <trkpt lat="47.97953" lon="6.9373">
        <ele>1037.53</ele>
        <time>2016-02-16T12:31:14Z</time>
      </trkpt>
      <trkpt lat="47.97952" lon="6.93751">
        <ele>1039.09</ele>
        <time>2016-02-16T12:32:06Z</time>
      </trkpt>
      <trkpt lat="47.97955" lon="6.9377">
        <ele>1040.97</ele>
        <time>2016-02-16T12:33:01Z</time>
      </trkpt>
      <trkpt lat="47.97952" lon="6.93803">
        <ele>1043.14</ele>
        <time>2016-02-16T12:33:46Z</time>
      </trkpt>
      <trkpt lat="47.97951" lon="6.9383">
        <ele>1046.41</ele>
        <time>2016-02-16T12:34:32Z</time>
      </trkpt>
      <trkpt lat="47.97946" lon="6.93864">
        <ele>1047.92</ele>
        <time>2016-02-16T12:35:12Z</time>
      </trkpt>
      <trkpt lat="47.97952" lon="6.93894">
        <ele>1048.46</ele>
        <time>2016-02-16T12:35:46Z</time>
      </trkpt>
      <trkpt lat="47.9796" lon="6.93927">
        <ele>1049.84</ele>
        <time>2016-02-16T12:36:20Z</time>
      </trkpt>
      <trkpt lat="47.97964" lon="6.93962">
        <ele>1050.47</ele>
        <time>2016-02-16T12:36:55Z</time>
      </trkpt>
      <trkpt lat="47.97963" lon="6.94">
        <ele>1051.14</ele>
        <time>2016-02-16T12:37:36Z</time>
      </trkpt>
      <trkpt lat="47.97975" lon="6.94017">
        <ele>1051.5</ele>
        <time>2016-02-16T12:38:20Z</time>
      </trkpt>
      <trkpt lat="47.9798" lon="6.94031">
        <ele>1051.26</ele>
        <time>2016-02-16T12:38:57Z</time>
      </trkpt>
      <trkpt lat="47.97995" lon="6.94055">
        <ele>1055.43</ele>
        <time>2016-02-16T12:39:38Z</time>
      </trkpt>
      <trkpt lat="47.98015" lon="6.94059">
        <ele>1056.91</ele>
        <time>2016-02-16T12:40:23Z</time>
      </trkpt>
      <trkpt lat="47.98034" lon="6.9404">
        <ele>1056.97</ele>
        <time>2016-02-16T12:41:05Z</time>
      </trkpt>
      <trkpt lat="47.98048" lon="6.94022">
        <ele>1054.75</ele>
        <time>2016-02-16T12:41:44Z</time>
      </trkpt>
      <trkpt lat="47.98051" lon="6.94014">
        <ele>1055.38</ele>
        <time>2016-02-16T12:43:22Z</time>
      </trkpt>
      <trkpt lat="47.98058" lon="6.94014">
        <ele>1054.19</ele>
        <time>2016-02-16T12:44:45Z</time>
      </trkpt>
      <trkpt lat="47.98078" lon="6.94008">
        <ele>1057.22</ele>
        <time>2016-02-16T12:45:36Z</time>
      </trkpt>
      <trkpt lat="47.981" lon="6.94007">
        <ele>1058.8</ele>
        <time>2016-02-16T12:46:13Z</time>
      </trkpt>
      <trkpt lat="47.98119" lon="6.94016">
        <ele>1061.58</ele>
        <time>2016-02-16T12:46:53Z</time>
      </trkpt>
      <trkpt lat="47.9814" lon="6.94029">
        <ele>1065.35</ele>
        <time>2016-02-16T12:47:42Z</time>
      </trkpt>
      <trkpt lat="47.98157" lon="6.94039">
        <ele>1068.2</ele>
        <time>2016-02-16T12:48:21Z</time>
      </trkpt>
      <trkpt lat="47.98175" lon="6.94057">
        <ele>1071.4</ele>
        <time>2016-02-16T12:49:11Z</time>
      </trkpt>
      <trkpt lat="47.98191" lon="6.94075">
        <ele>1074.67</ele>
        <time>2016-02-16T12:49:51Z</time>
      </trkpt>
      <trkpt lat="47.98205" lon="6.94096">
        <ele>1076.32</ele>
        <time>2016-02-16T12:50:38Z</time>
      </trkpt>
      <trkpt lat="47.98224" lon="6.94112">
        <ele>1079.4</ele>
        <time>2016-02-16T12:51:17Z</time>
      </trkpt>
      <trkpt lat="47.98246" lon="6.94125">
        <ele>1080.31</ele>
        <time>2016-02-16T12:52:01Z</time>
      </trkpt>
      <trkpt lat="47.98272" lon="6.94129">
        <ele>1080.45</ele>
        <time>2016-02-16T12:52:39Z</time>
      </trkpt>
      <trkpt lat="47.98286" lon="6.94126">
        <ele>1081.07</ele>
        <time>2016-02-16T12:53:50Z</time>
      </trkpt>
      <trkpt lat="47.98289" lon="6.94126">
        <ele>1081.3</ele>
        <time>2016-02-16T12:55:36Z</time>
      </trkpt>
      <trkpt lat="47.98292" lon="6.94129">
        <ele>1082.2</ele>
        <time>2016-02-16T12:57:49Z</time>
      </trkpt>
      <trkpt lat="47.98313" lon="6.94139">
        <ele>1081.56</ele>
        <time>2016-02-16T12:58:30Z</time>
      </trkpt>
      <trkpt lat="47.98334" lon="6.94141">
        <ele>1084.14</ele>
        <time>2016-02-16T12:59:12Z</time>
      </trkpt>
      <trkpt lat="47.98356" lon="6.94139">
        <ele>1085.82</ele>
        <time>2016-02-16T12:59:53Z</time>
      </trkpt>
      <trkpt lat="47.98377" lon="6.94149">
        <ele>1084.55</ele>
        <time>2016-02-16T13:00:32Z</time>
      </trkpt>
      <trkpt lat="47.98391" lon="6.94157">
        <ele>1085.39</ele>
        <time>2016-02-16T13:01:24Z</time>
      </trkpt>
      <trkpt lat="47.98411" lon="6.94168">
        <ele>1085.71</ele>
        <time>2016-02-16T13:02:06Z</time>
      </trkpt>
      <trkpt lat="47.98434" lon="6.94174">
        <ele>1085.45</ele>
        <time>2016-02-16T13:02:40Z</time>
      </trkpt>
      <trkpt lat="47.98454" lon="6.94184">
        <ele>1084.72</ele>
        <time>2016-02-16T13:03:14Z</time>
      </trkpt>
      <trkpt lat="47.98476" lon="6.94203">
        <ele>1085.1</ele>
        <time>2016-02-16T13:03:48Z</time>
      </trkpt>
      <trkpt lat="47.98488" lon="6.94231">
        <ele>1084.49</ele>
        <time>2016-02-16T13:04:21Z</time>
      </trkpt>
      <trkpt lat="47.98501" lon="6.94257">
        <ele>1085.22</ele>
        <time>2016-02-16T13:04:57Z</time>
      </trkpt>
      <trkpt lat="47.98521" lon="6.94284">
        <ele>1084.14</ele>
        <time>2016-02-16T13:05:28Z</time>
      </trkpt>
      <trkpt lat="47.98543" lon="6.94302">
        <ele>1083.47</ele>
        <time>2016-02-16T13:06:03Z</time>
      </trkpt>
      <trkpt lat="47.98564" lon="6.94322">
        <ele>1083.58</ele>
        <time>2016-02-16T13:06:39Z</time>
      </trkpt>
      <trkpt lat="47.98581" lon="6.94351">
        <ele>1084.6</ele>
        <time>2016-02-16T13:07:08Z</time>
      </trkpt>
      <trkpt lat="47.98595" lon="6.94381">
        <ele>1085.14</ele>
        <time>2016-02-16T13:07:44Z</time>
      </trkpt>
      <trkpt lat="47.98597" lon="6.94373">
        <ele>1084.45</ele>
        <time>2016-02-16T13:09:13Z</time>
      </trkpt>
      <trkpt lat="47.98602" lon="6.94384">
        <ele>1085.44</ele>
        <time>2016-02-16T13:10:01Z</time>
      </trkpt>
      <trkpt lat="47.98608" lon="6.94384">
        <ele>1086.13</ele>
        <time>2016-02-16T13:11:44Z</time>
      </trkpt>
      <trkpt lat="47.98613" lon="6.94387">
        <ele>1085.99</ele>
        <time>2016-02-16T13:14:01Z</time>
      </trkpt>
      <trkpt lat="47.98631" lon="6.94412">
        <ele>1087.4</ele>
        <time>2016-02-16T13:14:33Z</time>
      </trkpt>
      <trkpt lat="47.98644" lon="6.94438">
        <ele>1090.9</ele>
        <time>2016-02-16T13:15:10Z</time>
      </trkpt>
      <trkpt lat="47.98663" lon="6.94455">
        <ele>1093.56</ele>
        <time>2016-02-16T13:15:40Z</time>
      </trkpt>
      <trkpt lat="47.98684" lon="6.9447">
        <ele>1092.62</ele>
        <time>2016-02-16T13:16:11Z</time>
      </trkpt>
      <trkpt lat="47.98702" lon="6.94492">
        <ele>1095.96</ele>
        <time>2016-02-16T13:16:42Z</time>
      </trkpt>
      <trkpt lat="47.9872" lon="6.94512">
        <ele>1095.61</ele>
        <time>2016-02-16T13:17:12Z</time>
      </trkpt>
      <trkpt lat="47.98741" lon="6.94517">
        <ele>1095.69</ele>
        <time>2016-02-16T13:17:45Z</time>
      </trkpt>
      <trkpt lat="47.98762" lon="6.94525">
        <ele>1095.18</ele>
        <time>2016-02-16T13:18:14Z</time>
      </trkpt>
      <trkpt lat="47.98785" lon="6.94529">
        <ele>1091.1</ele>
        <time>2016-02-16T13:18:50Z</time>
      </trkpt>
      <trkpt lat="47.98794" lon="6.94525">
        <ele>1090.55</ele>
        <time>2016-02-16T13:19:48Z</time>
      </trkpt>
      <trkpt lat="47.98794" lon="6.94518">
        <ele>1090.76</ele>
        <time>2016-02-16T13:21:50Z</time>
      </trkpt>
      <trkpt lat="47.98798" lon="6.94528">
        <ele>1089.39</ele>
        <time>2016-02-16T13:23:10Z</time>
      </trkpt>
      <trkpt lat="47.98796" lon="6.94519">
        <ele>1090.27</ele>
        <time>2016-02-16T13:25:02Z</time>
      </trkpt>
      <trkpt lat="47.98811" lon="6.94502">
        <ele>1087.68</ele>
        <time>2016-02-16T13:25:45Z</time>
      </trkpt>
      <trkpt lat="47.98833" lon="6.94499">
        <ele>1089.45</ele>
        <time>2016-02-16T13:26:27Z</time>
      </trkpt>
      <trkpt lat="47.98851" lon="6.94509">
        <ele>1088.81</ele>
        <time>2016-02-16T13:27:14Z</time>
      </trkpt>
      <trkpt lat="47.98861" lon="6.94497">
        <ele>1092.35</ele>
        <time>2016-02-16T13:29:02Z</time>
      </trkpt>
      <trkpt lat="47.98856" lon="6.945">
        <ele>1093.13</ele>
        <time>2016-02-16T13:30:12Z</time>
      </trkpt>
      <trkpt lat="47.98873" lon="6.94482">
        <ele>1097.95</ele>
        <time>2016-02-16T13:30:52Z</time>
      </trkpt>
      <trkpt lat="47.98892" lon="6.94497">
        <ele>1101.07</ele>
        <time>2016-02-16T13:31:33Z</time>
      </trkpt>
      <trkpt lat="47.98905" lon="6.94529">
        <ele>1104.96</ele>
        <time>2016-02-16T13:32:14Z</time>
      </trkpt>
      <trkpt lat="47.98918" lon="6.94558">
        <ele>1105.16</ele>
        <time>2016-02-16T13:32:55Z</time>
      </trkpt>
      <trkpt lat="47.98915" lon="6.9453">
        <ele>1109.35</ele>
        <time>2016-02-16T13:33:40Z</time>
      </trkpt>
      <trkpt lat="47.98932" lon="6.94542">
        <ele>1112.64</ele>
        <time>2016-02-16T13:34:25Z</time>
      </trkpt>
      <trkpt lat="47.98946" lon="6.94561">
        <ele>1115.81</ele>
        <time>2016-02-16T13:35:09Z</time>
      </trkpt>
      <trkpt lat="47.98968" lon="6.94576">
        <ele>1118.83</ele>
        <time>2016-02-16T13:35:50Z</time>
      </trkpt>
      <trkpt lat="47.98985" lon="6.94591">
        <ele>1122.61</ele>
        <time>2016-02-16T13:36:33Z</time>
      </trkpt>
      <trkpt lat="47.99005" lon="6.94592">
        <ele>1125.67</ele>
        <time>2016-02-16T13:37:17Z</time>
      </trkpt>
      <trkpt lat="47.99021" lon="6.94582">
        <ele>1128.72</ele>
        <time>2016-02-16T13:38:20Z</time>
      </trkpt>
      <trkpt lat="47.99009" lon="6.94582">
        <ele>1129</ele>
        <time>2016-02-16T13:39:27Z</time>
      </trkpt>
      <trkpt lat="47.99002" lon="6.94593">
        <ele>1127.87</ele>
        <time>2016-02-16T13:40:37Z</time>
      </trkpt>
      <trkpt lat="47.99003" lon="6.94584">
        <ele>1129.07</ele>
        <time>2016-02-16T13:41:54Z</time>
      </trkpt>
      <trkpt lat="47.99006" lon="6.94574">
        <ele>1130.29</ele>
        <time>2016-02-16T13:43:40Z</time>
      </trkpt>
      <trkpt lat="47.99008" lon="6.94576">
        <ele>1130.38</ele>
        <time>2016-02-16T13:45:01Z</time>
      </trkpt>
      <trkpt lat="47.99005" lon="6.94575">
        <ele>1131.18</ele>
        <time>2016-02-16T13:46:30Z</time>
      </trkpt>
      <trkpt lat="47.98997" lon="6.94557">
        <ele>1131.5</ele>
        <time>2016-02-16T13:47:24Z</time>
      </trkpt>
      <trkpt lat="47.98984" lon="6.94545">
        <ele>1133.09</ele>
        <time>2016-02-16T13:48:07Z</time>
      </trkpt>
      <trkpt lat="47.98971" lon="6.94521">
        <ele>1133.6</ele>
        <time>2016-02-16T13:48:43Z</time>
      </trkpt>
      <trkpt lat="47.98967" lon="6.9449">
        <ele>1135.67</ele>
        <time>2016-02-16T13:49:22Z</time>
      </trkpt>
      <trkpt lat="47.98958" lon="6.94456">
        <ele>1140.44</ele>
        <time>2016-02-16T13:50:04Z</time>
      </trkpt>
      <trkpt lat="47.98953" lon="6.94421">
        <ele>1142.81</ele>
        <time>2016-02-16T13:50:48Z</time>
      </trkpt>
      <trkpt lat="47.98961" lon="6.94395">
        <ele>1145.72</ele>
        <time>2016-02-16T13:51:28Z</time>
      </trkpt>
      <trkpt lat="47.98957" lon="6.94362">
        <ele>1146.06</ele>
        <time>2016-02-16T13:52:09Z</time>
      </trkpt>
      <trkpt lat="47.98951" lon="6.94327">
        <ele>1146.47</ele>
        <time>2016-02-16T13:52:46Z</time>
      </trkpt>
      <trkpt lat="47.98947" lon="6.94293">
        <ele>1143.66</ele>
        <time>2016-02-16T13:53:27Z</time>
      </trkpt>
      <trkpt lat="47.98946" lon="6.94261">
        <ele>1146.79</ele>
        <time>2016-02-16T13:54:05Z</time>
      </trkpt>
      <trkpt lat="47.98944" lon="6.94226">
        <ele>1149.04</ele>
        <time>2016-02-16T13:54:45Z</time>
      </trkpt>
      <trkpt lat="47.98939" lon="6.94188">
        <ele>1149.85</ele>
        <time>2016-02-16T13:55:22Z</time>
      </trkpt>
      <trkpt lat="47.98937" lon="6.9415">
        <ele>1152.03</ele>
        <time>2016-02-16T13:55:56Z</time>
      </trkpt>
      <trkpt lat="47.98934" lon="6.94126">
        <ele>1150.79</ele>
        <time>2016-02-16T13:56:34Z</time>
      </trkpt>
      <trkpt lat="47.98938" lon="6.94121">
        <ele>1152.65</ele>
        <time>2016-02-16T14:00:01Z</time>
      </trkpt>
      <trkpt lat="47.98953" lon="6.94103">
        <ele>1152.53</ele>
        <time>2016-02-16T14:00:29Z</time>
      </trkpt>
      <trkpt lat="47.98969" lon="6.9409">
        <ele>1154.31</ele>
        <time>2016-02-16T14:01:04Z</time>
      </trkpt>
      <trkpt lat="47.98984" lon="6.94072">
        <ele>1154.75</ele>
        <time>2016-02-16T14:01:31Z</time>
      </trkpt>
      <trkpt lat="47.98998" lon="6.94054">
        <ele>1156.86</ele>
        <time>2016-02-16T14:02:16Z</time>
      </trkpt>
      <trkpt lat="47.99014" lon="6.94038">
        <ele>1159.49</ele>
        <time>2016-02-16T14:02:43Z</time>
      </trkpt>
      <trkpt lat="47.99031" lon="6.94021">
        <ele>1162.34</ele>
        <time>2016-02-16T14:03:10Z</time>
      </trkpt>
      <trkpt lat="47.99045" lon="6.94004">
        <ele>1162.94</ele>
        <time>2016-02-16T14:03:35Z</time>
      </trkpt>
      <trkpt lat="47.99053" lon="6.93978">
        <ele>1162.05</ele>
        <time>2016-02-16T14:04:55Z</time>
      </trkpt>
      <trkpt lat="47.99062" lon="6.93954">
        <ele>1159.27</ele>
        <time>2016-02-16T14:05:18Z</time>
      </trkpt>
      <trkpt lat="47.9906" lon="6.93925">
        <ele>1158.18</ele>
        <time>2016-02-16T14:05:41Z</time>
      </trkpt>
      <trkpt lat="47.99058" lon="6.93896">
        <ele>1155.86</ele>
        <time>2016-02-16T14:06:02Z</time>
      </trkpt>
      <trkpt lat="47.99056" lon="6.93869">
        <ele>1155.7</ele>
        <time>2016-02-16T14:06:24Z</time>
      </trkpt>
      <trkpt lat="47.99055" lon="6.9384">
        <ele>1151.6</ele>
        <time>2016-02-16T14:06:47Z</time>
      </trkpt>
      <trkpt lat="47.99054" lon="6.93812">
        <ele>1149.61</ele>
        <time>2016-02-16T14:07:12Z</time>
      </trkpt>
      <trkpt lat="47.99053" lon="6.9378">
        <ele>1146.88</ele>
        <time>2016-02-16T14:07:36Z</time>
      </trkpt>
      <trkpt lat="47.99058" lon="6.93756">
        <ele>1141.85</ele>
        <time>2016-02-16T14:07:59Z</time>
      </trkpt>
      <trkpt lat="47.99061" lon="6.93757">
        <ele>1142.86</ele>
        <time>2016-02-16T14:22:46Z</time>
      </trkpt>
      <trkpt lat="47.99075" lon="6.93748">
        <ele>1137.73</ele>
        <time>2016-02-16T14:23:13Z</time>
      </trkpt>
      <trkpt lat="47.99094" lon="6.93757">
        <ele>1134.73</ele>
        <time>2016-02-16T14:23:48Z</time>
      </trkpt>
      <trkpt lat="47.99117" lon="6.9377">
        <ele>1131.82</ele>
        <time>2016-02-16T14:24:23Z</time>
      </trkpt>
      <trkpt lat="47.9914" lon="6.93784">
        <ele>1127.44</ele>
        <time>2016-02-16T14:24:59Z</time>
      </trkpt>
      <trkpt lat="47.99163" lon="6.93798">
        <ele>1123.48</ele>
        <time>2016-02-16T14:25:37Z</time>
      </trkpt>
      <trkpt lat="47.99189" lon="6.93813">
        <ele>1119.59</ele>
        <time>2016-02-16T14:26:14Z</time>
      </trkpt>
      <trkpt lat="47.99208" lon="6.93836">
        <ele>1114.78</ele>
        <time>2016-02-16T14:26:51Z</time>
      </trkpt>
      <trkpt lat="47.99231" lon="6.93853">
        <ele>1108.76</ele>
        <time>2016-02-16T14:27:28Z</time>
      </trkpt>
      <trkpt lat="47.99269" lon="6.93878">
        <ele>1104.88</ele>
        <time>2016-02-16T14:28:06Z</time>
      </trkpt>
      <trkpt lat="47.99304" lon="6.93895">
        <ele>1100.94</ele>
        <time>2016-02-16T14:28:42Z</time>
      </trkpt>
      <trkpt lat="47.99328" lon="6.93913">
        <ele>1096.26</ele>
        <time>2016-02-16T14:29:19Z</time>
      </trkpt>
      <trkpt lat="47.99356" lon="6.93927">
        <ele>1091.23</ele>
        <time>2016-02-16T14:29:58Z</time>
      </trkpt>
      <trkpt lat="47.99385" lon="6.93946">
        <ele>1085.53</ele>
        <time>2016-02-16T14:30:37Z</time>
      </trkpt>
      <trkpt lat="47.99414" lon="6.93957">
        <ele>1081.93</ele>
        <time>2016-02-16T14:31:19Z</time>
      </trkpt>
      <trkpt lat="47.99438" lon="6.93973">
        <ele>1078.67</ele>
        <time>2016-02-16T14:31:48Z</time>
      </trkpt>
      <trkpt lat="47.99463" lon="6.93984">
        <ele>1076.16</ele>
        <time>2016-02-16T14:32:30Z</time>
      </trkpt>
      <trkpt lat="47.99486" lon="6.93994">
        <ele>1074.8</ele>
        <time>2016-02-16T14:33:04Z</time>
      </trkpt>
      <trkpt lat="47.99505" lon="6.94009">
        <ele>1069.28</ele>
        <time>2016-02-16T14:33:40Z</time>
      </trkpt>
      <trkpt lat="47.99532" lon="6.94025">
        <ele>1064.47</ele>
        <time>2016-02-16T14:34:16Z</time>
      </trkpt>
      <trkpt lat="47.99563" lon="6.94039">
        <ele>1059.61</ele>
        <time>2016-02-16T14:34:54Z</time>
      </trkpt>
      <trkpt lat="47.99588" lon="6.94051">
        <ele>1057.04</ele>
        <time>2016-02-16T14:35:27Z</time>
      </trkpt>
      <trkpt lat="47.99612" lon="6.94049">
        <ele>1051.11</ele>
        <time>2016-02-16T14:35:56Z</time>
      </trkpt>
      <trkpt lat="47.99634" lon="6.94062">
        <ele>1048.77</ele>
        <time>2016-02-16T14:36:27Z</time>
      </trkpt>
      <trkpt lat="47.99658" lon="6.94077">
        <ele>1044.04</ele>
        <time>2016-02-16T14:37:01Z</time>
      </trkpt>
      <trkpt lat="47.9968" lon="6.94087">
        <ele>1042.37</ele>
        <time>2016-02-16T14:37:32Z</time>
      </trkpt>
      <trkpt lat="47.99709" lon="6.94084">
        <ele>1037.26</ele>
        <time>2016-02-16T14:38:00Z</time>
      </trkpt>
      <trkpt lat="47.9972" lon="6.94056">
        <ele>1033.93</ele>
        <time>2016-02-16T14:38:30Z</time>
      </trkpt>
      <trkpt lat="47.99745" lon="6.94057">
        <ele>1027.32</ele>
        <time>2016-02-16T14:39:05Z</time>
      </trkpt>
      <trkpt lat="47.99767" lon="6.9405">
        <ele>1021.11</ele>
        <time>2016-02-16T14:39:38Z</time>
      </trkpt>
      <trkpt lat="47.99796" lon="6.94045">
        <ele>1016.03</ele>
        <time>2016-02-16T14:40:12Z</time>
      </trkpt>
      <trkpt lat="47.99825" lon="6.94044">
        <ele>1012.86</ele>
        <time>2016-02-16T14:40:43Z</time>
      </trkpt>
      <trkpt lat="47.99849" lon="6.94052">
        <ele>1007.23</ele>
        <time>2016-02-16T14:41:21Z</time>
      </trkpt>
      <trkpt lat="47.99877" lon="6.94069">
        <ele>1004.36</ele>
        <time>2016-02-16T14:41:56Z</time>
      </trkpt>
      <trkpt lat="47.99905" lon="6.94085">
        <ele>1001.72</ele>
        <time>2016-02-16T14:42:32Z</time>
      </trkpt>
      <trkpt lat="47.99923" lon="6.941">
        <ele>998.62</ele>
        <time>2016-02-16T14:43:19Z</time>
      </trkpt>
      <trkpt lat="47.99949" lon="6.94115">
        <ele>993.42</ele>
        <time>2016-02-16T14:43:56Z</time>
      </trkpt>
      <trkpt lat="47.99974" lon="6.94142">
        <ele>987.5</ele>
        <time>2016-02-16T14:44:31Z</time>
      </trkpt>
      <trkpt lat="47.99995" lon="6.94175">
        <ele>982.64</ele>
        <time>2016-02-16T14:45:07Z</time>
      </trkpt>
      <trkpt lat="48.00011" lon="6.94204">
        <ele>978.13</ele>
        <time>2016-02-16T14:45:42Z</time>
      </trkpt>
      <trkpt lat="48.00029" lon="6.94238">
        <ele>974.74</ele>
        <time>2016-02-16T14:46:19Z</time>
      </trkpt>
      <trkpt lat="48.00043" lon="6.94263">
        <ele>968.47</ele>
        <time>2016-02-16T14:46:52Z</time>
      </trkpt>
      <trkpt lat="48.00042" lon="6.94299">
        <ele>965.96</ele>
        <time>2016-02-16T14:47:13Z</time>
      </trkpt>
      <trkpt lat="48.0004" lon="6.94327">
        <ele>965.4</ele>
        <time>2016-02-16T14:47:36Z</time>
      </trkpt>
      <trkpt lat="48.00033" lon="6.94363">
        <ele>960.77</ele>
        <time>2016-02-16T14:48:04Z</time>
      </trkpt>
      <trkpt lat="48.00027" lon="6.94397">
        <ele>960.43</ele>
        <time>2016-02-16T14:48:31Z</time>
      </trkpt>
      <trkpt lat="48.00034" lon="6.94425">
        <ele>957.98</ele>
        <time>2016-02-16T14:49:04Z</time>
      </trkpt>
      <trkpt lat="48.00053" lon="6.94442">
        <ele>954.42</ele>
        <time>2016-02-16T14:49:33Z</time>
      </trkpt>
      <trkpt lat="48.00056" lon="6.9447">
        <ele>953.36</ele>
        <time>2016-02-16T14:50:03Z</time>
      </trkpt>
      <trkpt lat="48.00055" lon="6.94499">
        <ele>951.25</ele>
        <time>2016-02-16T14:50:26Z</time>
      </trkpt>
      <trkpt lat="48.00061" lon="6.94532">
        <ele>949.63</ele>
        <time>2016-02-16T14:50:50Z</time>
      </trkpt>
      <trkpt lat="48.00079" lon="6.94534">
        <ele>947.21</ele>
        <time>2016-02-16T14:51:07Z</time>
      </trkpt>
      <trkpt lat="48.00099" lon="6.94539">
        <ele>945.9</ele>
        <time>2016-02-16T14:51:26Z</time>
      </trkpt>
      <trkpt lat="48.0012" lon="6.94551">
        <ele>944.17</ele>
        <time>2016-02-16T14:51:48Z</time>
      </trkpt>
      <trkpt lat="48.00141" lon="6.94558">
        <ele>943.43</ele>
        <time>2016-02-16T14:52:18Z</time>
      </trkpt>
    </trkseg>
  </trk>
</gpx>